createdAt,value
2019-02-06T00:05:16.275Z,6.93
2019-02-06T00:08:20.735Z,6.00
2019-02-06T00:11:24.394Z,6.50
2019-02-06T00:14:48.501Z,7.73
2019-02-06T00:17:51.957Z,6.37
2019-02-06T00:20:55.347Z,6.20
2019-02-06T00:24:18.160Z,6.67
2019-02-06T00:27:21.989Z,6.50
2019-02-06T00:33:49.728Z,7.00
2019-02-06T00:36:53.383Z,6.50
2019-02-06T00:39:56.863Z,6.97
2019-02-06T00:43:00.328Z,6.83
2019-02-06T00:46:03.793Z,6.67
2019-02-06T00:49:07.199Z,6.93
2019-02-06T00:52:10.592Z,6.97
2019-02-06T00:55:35.014Z,7.23
2019-02-06T00:58:38.416Z,6.90
2019-02-06T01:01:41.983Z,7.70
2019-02-06T01:04:45.617Z,7.17
2019-02-06T01:07:49.258Z,7.20
2019-02-06T01:10:52.646Z,6.90
2019-02-06T01:13:56.400Z,7.93
2019-02-06T01:16:59.805Z,7.47
2019-02-06T01:20:22.603Z,8.00
2019-02-06T01:23:26.331Z,7.60
2019-02-06T01:26:29.718Z,7.50
2019-02-06T01:29:33.127Z,7.97
2019-02-06T01:32:36.543Z,7.80
2019-02-06T01:35:49.668Z,8.10
2019-02-06T01:38:45.370Z,7.80
2019-02-06T01:41:48.766Z,7.77
2019-02-06T01:44:52.166Z,7.97
2019-02-06T01:47:55.587Z,7.73
2019-02-06T01:50:58.981Z,7.93
2019-02-06T01:54:02.379Z,8.00
2019-02-06T01:57:25.137Z,8.33
2019-02-06T02:00:28.780Z,8.30
2019-02-06T02:03:32.567Z,8.30
2019-02-06T02:06:35.957Z,9.07
2019-02-06T02:09:39.429Z,9.00
2019-02-06T02:12:43.358Z,8.30
2019-02-06T02:15:46.765Z,8.50
2019-02-06T02:18:50.143Z,7.93
2019-02-06T02:21:53.998Z,8.63
2019-02-06T02:24:57.646Z,8.30
2019-02-06T02:28:01.275Z,8.43
2019-02-06T02:31:06.590Z,8.13
2019-02-06T02:34:10.021Z,8.03
2019-02-06T02:37:13.843Z,8.23
2019-02-06T02:40:18.860Z,9.60
2019-02-06T02:43:22.568Z,9.03
2019-02-06T02:46:25.979Z,8.17
2019-02-06T02:49:31.089Z,8.93
2019-02-06T02:52:34.493Z,9.40
2019-02-06T02:55:37.899Z,8.90
2019-02-06T02:58:43.265Z,9.30
2019-02-06T03:08:07.874Z,8.97
2019-02-06T03:11:11.406Z,9.73
2019-02-06T03:14:14.834Z,9.30
2019-02-06T03:17:18.354Z,9.90
2019-02-06T03:20:21.812Z,9.33
2019-02-06T03:23:25.482Z,10.03
2019-02-06T03:26:28.887Z,9.30
2019-02-06T03:29:32.286Z,8.97
2019-02-06T03:32:35.944Z,9.93
2019-02-06T03:35:39.329Z,9.50
2019-02-06T03:38:42.970Z,10.43
2019-02-06T03:41:46.388Z,10.60
2019-02-06T03:44:49.783Z,10.83
2019-02-06T03:47:53.438Z,10.73
2019-02-06T03:50:56.892Z,10.97
2019-02-06T03:54:00.479Z,10.73
2019-02-06T03:57:03.880Z,10.17
2019-02-06T04:00:26.644Z,10.13
2019-02-06T04:03:30.417Z,10.00
2019-02-06T04:06:35.761Z,10.50
2019-02-06T04:09:39.408Z,10.90
2019-02-06T04:12:42.882Z,10.07
2019-02-06T04:15:48.240Z,10.47
2019-02-06T04:18:51.896Z,10.33
2019-02-06T04:21:55.541Z,10.30
2019-02-06T04:25:00.669Z,10.43
2019-02-06T04:28:04.071Z,10.27
2019-02-06T04:31:07.464Z,10.03
2019-02-06T04:34:11.157Z,10.43
2019-02-06T04:37:14.536Z,10.03
2019-02-06T04:40:38.972Z,10.23
2019-02-06T04:43:42.377Z,10.77
2019-02-06T04:46:45.761Z,10.53
2019-02-06T04:49:49.415Z,10.73
2019-02-06T04:52:53.040Z,10.80
2019-02-06T04:55:56.434Z,11.57
2019-02-06T04:58:59.921Z,10.77
2019-02-06T05:02:22.634Z,11.87
2019-02-06T05:05:26.040Z,10.73
2019-02-06T05:08:29.440Z,10.83
2019-02-06T05:11:32.827Z,11.40
2019-02-06T05:14:36.239Z,10.30
2019-02-06T05:17:39.948Z,10.30
2019-02-06T05:20:43.357Z,10.67
2019-02-06T05:23:46.759Z,10.63
2019-02-06T05:26:50.166Z,10.83
2019-02-06T05:29:53.850Z,10.80
2019-02-06T05:32:57.618Z,10.70
2019-02-06T05:36:09.981Z,11.30
2019-02-06T05:39:13.403Z,11.73
2019-02-06T05:42:17.075Z,11.43
2019-02-06T05:45:20.824Z,11.17
2019-02-06T05:48:24.493Z,11.40
2019-02-06T05:51:27.966Z,11.43
2019-02-06T05:54:31.372Z,11.10
2019-02-06T05:57:34.789Z,11.40
2019-02-06T06:00:40.235Z,11.80
2019-02-06T06:03:43.630Z,10.40
2019-02-06T06:06:47.029Z,11.10
2019-02-06T06:09:51.709Z,11.07
2019-02-06T06:12:55.443Z,10.93
2019-02-06T06:15:59.187Z,12.30
2019-02-06T06:19:02.907Z,11.73
2019-02-06T06:22:06.703Z,12.23
2019-02-06T06:25:12.750Z,12.13
2019-02-06T06:28:16.476Z,12.03
2019-02-06T06:31:19.882Z,12.27
2019-02-06T06:34:23.276Z,10.93
2019-02-06T06:37:26.681Z,10.27
2019-02-06T06:40:30.100Z,11.03
2019-02-06T06:43:33.781Z,11.03
2019-02-06T06:46:37.210Z,11.37
2019-02-06T06:49:40.600Z,10.20
2019-02-06T06:52:44.006Z,11.00
2019-02-06T06:55:47.414Z,11.90
2019-02-06T06:58:50.875Z,11.43
2019-02-06T07:01:54.273Z,13.17
2019-02-06T07:04:57.667Z,14.33
2019-02-06T07:08:09.346Z,12.77
2019-02-06T07:11:06.527Z,10.97
2019-02-06T07:14:09.960Z,11.10
2019-02-06T07:17:13.562Z,11.53
2019-02-06T07:20:18.914Z,11.57
2019-02-06T07:23:22.321Z,10.10
2019-02-06T07:26:25.738Z,11.03
2019-02-06T07:29:29.202Z,11.13
2019-02-06T07:32:32.618Z,10.17
2019-02-06T07:35:36.021Z,11.43
2019-02-06T07:38:39.738Z,10.87
2019-02-06T07:41:43.144Z,10.80
2019-02-06T07:44:46.798Z,9.50
2019-02-06T07:47:50.356Z,10.30
2019-02-06T07:50:53.778Z,10.83
2019-02-06T07:53:57.170Z,9.93
2019-02-06T07:57:00.646Z,9.67
2019-02-06T08:00:06.998Z,10.70
2019-02-06T08:03:10.887Z,9.47
2019-02-06T08:06:14.490Z,9.90
2019-02-06T08:09:17.893Z,10.17
2019-02-06T08:12:21.350Z,9.87
2019-02-06T08:15:25.259Z,10.47
2019-02-06T08:18:28.725Z,9.40
2019-02-06T08:21:32.135Z,10.13
2019-02-06T08:24:35.978Z,10.23
2019-02-06T08:27:39.370Z,9.37
2019-02-06T08:30:43.011Z,10.67
2019-02-06T08:33:46.789Z,9.57
2019-02-06T08:36:50.184Z,9.53
2019-02-06T08:39:53.836Z,10.70
2019-02-06T08:42:57.431Z,10.17
2019-02-06T08:46:00.828Z,9.73
2019-02-06T08:49:04.670Z,9.80
2019-02-06T08:52:08.082Z,10.60
2019-02-06T08:55:14.921Z,9.83
2019-02-06T08:58:18.423Z,10.03
2019-02-06T09:01:21.811Z,9.50
2019-02-06T09:04:25.216Z,9.90
2019-02-06T09:07:28.594Z,9.43
2019-02-06T09:10:32.547Z,10.00
2019-02-06T09:13:35.992Z,9.67
2019-02-06T09:16:39.380Z,9.13
2019-02-06T09:19:42.846Z,9.50
2019-02-06T09:22:46.550Z,9.83
2019-02-06T09:25:49.957Z,9.03
2019-02-06T09:28:53.611Z,9.53
2019-02-06T09:31:59.362Z,10.33
2019-02-06T09:35:02.436Z,9.30
2019-02-06T09:38:06.156Z,9.67
2019-02-06T09:41:09.930Z,10.07
2019-02-06T09:44:13.655Z,9.60
2019-02-06T09:47:17.078Z,10.00
2019-02-06T09:50:22.768Z,9.83
2019-02-06T09:53:26.921Z,9.73
2019-02-06T09:56:30.550Z,9.53
2019-02-06T09:59:33.959Z,10.00
2019-02-06T10:02:37.379Z,9.90
2019-02-06T10:05:40.782Z,10.67
2019-02-06T10:08:44.172Z,9.30
2019-02-06T10:11:47.823Z,9.27
2019-02-06T10:14:51.217Z,9.53
2019-02-06T10:17:55.339Z,9.13
2019-02-06T10:20:58.749Z,9.30
2019-02-06T10:24:02.203Z,9.53
2019-02-06T10:27:05.676Z,9.70
2019-02-06T10:30:12.565Z,9.07
2019-02-06T10:33:18.685Z,9.63
2019-02-06T10:36:21.343Z,9.80
2019-02-06T10:39:34.362Z,10.23
2019-02-06T10:42:30.152Z,10.10
2019-02-06T10:45:33.618Z,9.73
2019-02-06T10:48:37.012Z,8.80
2019-02-06T10:51:40.413Z,9.53
2019-02-06T10:54:43.835Z,9.37
2019-02-06T10:57:47.559Z,9.93
2019-02-06T11:00:54.014Z,9.50
2019-02-06T11:03:57.408Z,9.83
2019-02-06T11:07:01.102Z,9.83
2019-02-06T11:10:07.447Z,9.63
2019-02-06T11:13:11.039Z,9.43
2019-02-06T11:16:14.454Z,9.23
2019-02-06T11:19:17.860Z,8.97
2019-02-06T11:22:21.327Z,8.97
2019-02-06T11:25:26.443Z,7.77
2019-02-06T11:28:30.178Z,8.60
2019-02-06T11:31:33.599Z,9.27
2019-02-06T11:34:36.986Z,9.00
2019-02-06T11:37:40.537Z,8.60
2019-02-06T11:40:43.919Z,8.60
2019-02-06T11:43:47.732Z,8.83
2019-02-06T11:46:51.187Z,8.23
2019-02-06T11:49:56.469Z,8.00
2019-02-06T11:53:00.418Z,7.97
2019-02-06T11:56:04.133Z,7.97
2019-02-06T11:59:07.621Z,8.20
2019-02-06T12:02:11.751Z,7.70
2019-02-06T12:05:15.277Z,8.13
2019-02-06T12:08:19.026Z,7.67
2019-02-06T12:11:24.138Z,8.93
2019-02-06T12:14:27.538Z,8.27
2019-02-06T12:17:30.999Z,8.20
2019-02-06T12:24:46.161Z,8.53
2019-02-06T12:28:29.471Z,8.40
2019-02-06T12:31:32.857Z,7.87
2019-02-06T12:34:36.505Z,8.10
2019-02-06T12:37:39.906Z,8.30
2019-02-06T12:40:43.378Z,7.27
2019-02-06T12:43:46.782Z,7.60
2019-02-06T12:46:50.170Z,7.33
2019-02-06T12:49:53.565Z,7.37
2019-02-06T12:53:16.299Z,7.47
2019-02-06T12:56:39.312Z,7.00
2019-02-06T13:00:02.337Z,7.90
2019-02-06T13:03:06.108Z,7.20
2019-02-06T13:06:29.099Z,7.77
2019-02-06T13:09:51.931Z,7.47
2019-02-06T13:12:55.391Z,6.83
2019-02-06T13:15:58.862Z,6.53
2019-02-06T13:19:02.583Z,7.53
2019-02-06T13:22:05.987Z,7.40
2019-02-06T13:25:49.303Z,7.27
2019-02-06T13:28:52.676Z,6.67
2019-02-06T13:31:56.081Z,6.83
2019-02-06T13:34:59.721Z,5.93
2019-02-06T13:38:03.559Z,6.70
2019-02-06T13:44:56.561Z,6.50
2019-02-06T13:48:19.439Z,6.40
2019-02-06T13:51:22.819Z,6.43
2019-02-06T13:54:45.799Z,5.87
2019-02-06T13:57:49.261Z,5.03
2019-02-06T14:00:52.749Z,5.77
2019-02-06T14:03:56.393Z,5.63
2019-02-06T14:07:00.039Z,5.50
2019-02-06T14:13:46.592Z,6.40
2019-02-06T14:16:49.992Z,5.60
2019-02-06T14:19:53.396Z,6.17
2019-02-06T14:23:35.625Z,6.67
2019-02-06T14:27:17.640Z,7.13
2019-02-06T14:31:00.958Z,6.60
2019-02-06T14:34:42.951Z,6.83
2019-02-06T14:38:25.003Z,7.27
2019-02-06T14:42:07.066Z,7.73
2019-02-06T14:45:31.508Z,7.50
2019-02-06T14:49:14.850Z,8.00
2019-02-06T14:52:39.037Z,8.70
2019-02-06T14:56:21.275Z,7.73
2019-02-06T15:00:04.658Z,7.73
2019-02-06T15:03:46.879Z,7.53
2019-02-06T15:07:30.498Z,7.73
2019-02-06T15:11:19.399Z,8.20
2019-02-06T15:14:57.671Z,8.57
2019-02-06T15:18:39.645Z,9.20
2019-02-06T15:22:23.032Z,8.87
2019-02-06T15:26:06.399Z,8.33
2019-02-06T15:33:12.414Z,9.27
2019-02-06T15:36:54.403Z,9.30
2019-02-06T15:40:18.652Z,9.07
2019-02-06T15:44:00.654Z,9.40
2019-02-06T15:47:24.840Z,8.60
2019-02-06T15:51:06.831Z,9.80
2019-02-06T15:54:31.334Z,9.90
2019-02-06T15:58:13.310Z,9.70
2019-02-06T16:01:56.916Z,10.50
2019-02-06T16:05:40.553Z,10.40
2019-02-06T16:09:22.546Z,10.13
2019-02-06T16:12:46.996Z,10.50
2019-02-06T16:16:28.990Z,10.10
2019-02-06T16:19:53.244Z,10.47
2019-02-06T16:23:35.472Z,11.20
2019-02-06T16:27:17.741Z,10.40
2019-02-06T16:30:59.733Z,10.37
2019-02-06T16:34:26.894Z,10.37
2019-02-06T16:37:51.988Z,11.07
2019-02-06T16:41:33.977Z,10.57
2019-02-06T16:44:58.170Z,11.63
2019-02-06T16:48:22.665Z,11.27
2019-02-06T16:51:46.845Z,10.97
2019-02-06T16:55:28.835Z,11.43
2019-02-06T16:59:12.225Z,11.30
2019-02-06T17:02:38.208Z,11.23
2019-02-06T17:06:20.397Z,11.77
2019-02-06T17:10:04.012Z,11.40
2019-02-06T17:13:47.308Z,12.27
2019-02-06T17:17:02.655Z,11.87
2019-02-06T17:20:17.347Z,12.20
2019-02-06T17:23:45.259Z,12.40
2019-02-06T17:27:03.928Z,11.83
2019-02-06T17:30:48.422Z,11.77
2019-02-06T17:34:20.486Z,11.27
2019-02-06T17:37:43.506Z,11.70
2019-02-06T17:40:58.820Z,12.07
2019-02-06T17:44:14.270Z,11.67
2019-02-06T17:47:26.920Z,12.47
2019-02-06T17:51:05.862Z,12.03
2019-02-06T17:54:21.097Z,11.90
2019-02-06T17:57:24.748Z,12.00
2019-02-06T18:00:34.097Z,12.17
2019-02-06T18:03:41.583Z,11.30
2019-02-06T18:06:53.938Z,11.93
2019-02-06T18:09:58.421Z,12.27
2019-02-06T18:13:02.913Z,11.87
2019-02-06T18:16:06.575Z,11.80
2019-02-06T18:19:09.996Z,12.60
2019-02-06T18:22:13.478Z,12.17
2019-02-06T18:25:17.248Z,11.83
2019-02-06T18:28:20.723Z,12.37
2019-02-06T18:31:24.193Z,12.37
2019-02-06T18:34:27.596Z,12.67
2019-02-06T18:37:31.359Z,13.00
2019-02-06T18:40:34.905Z,12.10
2019-02-06T18:43:38.315Z,13.27
2019-02-06T18:46:41.709Z,12.47
2019-02-06T18:49:45.110Z,12.30
2019-02-06T18:52:48.577Z,12.10
2019-02-06T18:55:52.303Z,12.40
2019-02-06T18:58:55.715Z,12.87
2019-02-06T19:01:59.511Z,11.93
2019-02-06T19:05:03.069Z,12.40
2019-02-06T19:08:07.550Z,12.20
2019-02-06T19:11:11.343Z,12.43
2019-02-06T19:14:14.893Z,11.50
2019-02-06T19:17:18.302Z,12.47
2019-02-06T19:20:21.675Z,11.87
2019-02-06T19:23:36.140Z,11.90
2019-02-06T19:26:39.630Z,11.90
2019-02-06T19:29:43.944Z,12.90
2019-02-06T19:32:47.359Z,12.57
2019-02-06T19:35:51.151Z,12.63
2019-02-06T19:38:55.511Z,12.40
2019-02-06T19:41:58.922Z,13.13
2019-02-06T19:45:02.698Z,11.47
2019-02-06T19:48:15.642Z,12.30
2019-02-06T19:51:20.395Z,12.47
2019-02-06T19:54:23.965Z,12.07
2019-02-06T19:57:33.394Z,11.57
2019-02-06T20:00:37.128Z,12.53
2019-02-06T20:03:40.815Z,12.43
2019-02-06T20:06:46.203Z,12.80
2019-02-06T20:09:49.601Z,11.53
2019-02-06T20:12:53.083Z,11.60
2019-02-06T20:16:03.575Z,12.33
2019-02-06T20:19:07.916Z,12.70
2019-02-06T20:22:11.290Z,12.90
2019-02-06T20:25:15.779Z,11.63
2019-02-06T20:28:21.576Z,11.40
2019-02-06T20:31:26.922Z,12.60
2019-02-06T20:34:30.627Z,12.13
2019-02-06T20:37:34.327Z,12.20
2019-02-06T20:40:40.471Z,12.20
2019-02-06T20:43:43.889Z,12.20
2019-02-06T20:46:47.297Z,11.90
2019-02-06T20:49:50.699Z,12.40
2019-02-06T20:52:54.245Z,11.90
2019-02-06T20:55:58.263Z,12.70
2019-02-06T20:59:04.021Z,11.53
2019-02-06T21:02:09.721Z,12.37
2019-02-06T21:05:14.481Z,12.47
2019-02-06T21:08:17.869Z,12.97
2019-02-06T21:11:21.280Z,12.87
2019-02-06T21:14:25.375Z,12.17
2019-02-06T21:17:28.762Z,12.00
2019-02-06T21:20:32.258Z,12.17
2019-02-06T21:23:36.201Z,11.97
2019-02-06T21:26:39.893Z,11.50
2019-02-06T21:29:43.307Z,12.80
2019-02-06T21:32:46.982Z,12.43
2019-02-06T21:35:50.748Z,12.40
2019-02-06T21:38:54.514Z,11.63
2019-02-06T21:41:58.639Z,12.70
2019-02-06T21:45:02.340Z,12.43
2019-02-06T21:48:06.989Z,12.03
2019-02-06T21:51:10.774Z,12.70
2019-02-06T21:54:14.168Z,13.13
2019-02-06T21:57:17.597Z,13.20
2019-02-06T22:00:36.941Z,13.23
2019-02-06T22:03:43.397Z,13.50
2019-02-06T22:06:46.825Z,12.70
2019-02-06T22:09:59.218Z,12.60
2019-02-06T22:13:02.857Z,12.87
2019-02-06T22:16:12.270Z,13.63
2019-02-06T22:19:15.987Z,13.43
2019-02-06T22:22:19.403Z,12.50
2019-02-06T22:25:22.866Z,12.70
2019-02-06T22:28:26.288Z,13.00
2019-02-06T22:31:29.699Z,13.00
2019-02-06T22:34:33.399Z,13.40
2019-02-06T22:37:36.879Z,13.73
2019-02-06T22:40:40.295Z,13.33
2019-02-06T22:43:43.921Z,11.90
2019-02-06T22:46:47.327Z,12.00
2019-02-06T22:49:50.816Z,12.57
2019-02-06T22:52:54.257Z,12.67
2019-02-06T22:55:57.649Z,12.17
2019-02-06T22:59:01.051Z,12.07
2019-02-06T23:02:05.633Z,12.17
2019-02-06T23:05:09.551Z,12.07
2019-02-06T23:08:12.985Z,11.23
2019-02-06T23:11:16.749Z,11.63
2019-02-06T23:14:23.158Z,12.37
2019-02-06T23:17:26.779Z,11.63
2019-02-06T23:20:30.258Z,11.93
2019-02-06T23:23:33.734Z,13.00
2019-02-06T23:26:37.219Z,12.10
2019-02-06T23:29:40.612Z,11.83
2019-02-06T23:32:44.273Z,11.83
2019-02-06T23:35:47.672Z,11.27
2019-02-06T23:38:51.072Z,11.77
2019-02-06T23:41:54.744Z,12.17
2019-02-06T23:44:58.142Z,10.77
2019-02-06T23:48:01.567Z,11.20
2019-02-06T23:51:45.151Z,11.30
2019-02-06T23:54:48.544Z,10.33
2019-02-06T23:57:51.948Z,11.07
